createdAt,value
2023-10-04T00:01:36.192Z,22.50
2023-10-04T00:04:07.408Z,22.51
2023-10-04T00:06:38.225Z,22.53
2023-10-04T00:09:11.209Z,22.55
2023-10-04T00:11:42.694Z,22.57
2023-10-04T00:14:12.899Z,22.58
2023-10-04T00:16:43.492Z,22.60
2023-10-04T00:19:14.220Z,22.61
2023-10-04T00:21:44.450Z,22.63
2023-10-04T00:24:14.736Z,22.64
2023-10-04T00:26:45.155Z,22.65
2023-10-04T00:29:15.405Z,22.66
2023-10-04T00:31:46.414Z,22.66
2023-10-04T00:34:16.736Z,22.66
2023-10-04T00:36:46.925Z,22.68
2023-10-04T00:39:19.399Z,22.68
2023-10-04T00:41:52.042Z,22.66
2023-10-04T00:44:22.470Z,22.66
2023-10-04T00:46:52.725Z,22.65
2023-10-04T00:49:22.854Z,22.66
2023-10-04T00:51:53.115Z,22.67
2023-10-04T00:54:23.493Z,22.69
2023-10-04T00:56:54.080Z,22.72
2023-10-04T00:59:24.629Z,22.72
2023-10-04T01:01:54.869Z,22.75
2023-10-04T01:04:26.617Z,22.77
2023-10-04T01:06:57.014Z,22.79
2023-10-04T01:09:27.624Z,22.83
2023-10-04T01:11:57.818Z,22.88
2023-10-04T01:14:33.712Z,22.92
2023-10-04T01:17:04.941Z,22.96
2023-10-04T01:19:35.312Z,23.00
2023-10-04T01:22:07.582Z,23.04
2023-10-04T01:24:42.342Z,23.07
2023-10-04T01:27:12.659Z,23.11
2023-10-04T01:29:44.263Z,23.15
2023-10-04T01:32:14.430Z,23.18
2023-10-04T01:34:44.622Z,23.22
2023-10-04T01:37:14.742Z,23.24
2023-10-04T01:39:46.109Z,23.26
2023-10-04T01:42:16.433Z,23.29
2023-10-04T01:44:46.692Z,23.32
2023-10-04T01:47:16.766Z,23.34
2023-10-04T01:49:46.891Z,23.37
2023-10-04T01:52:17.069Z,23.38
2023-10-04T01:54:47.164Z,23.40
2023-10-04T01:57:20.049Z,23.42
2023-10-04T01:59:50.333Z,23.44
2023-10-04T02:02:20.541Z,23.46
2023-10-04T02:04:54.391Z,23.48
2023-10-04T02:07:24.785Z,23.50
2023-10-04T02:09:54.901Z,23.51
2023-10-04T02:12:25.169Z,23.53
2023-10-04T02:14:55.324Z,23.54
2023-10-04T02:17:25.479Z,23.56
2023-10-04T02:19:55.643Z,23.56
2023-10-04T02:22:26.568Z,23.58
2023-10-04T02:24:58.499Z,23.59
2023-10-04T02:27:28.758Z,23.61
2023-10-04T02:29:58.983Z,23.62
2023-10-04T02:32:31.722Z,23.63
2023-10-04T02:35:02.096Z,23.65
2023-10-04T02:37:32.372Z,23.66
2023-10-04T02:40:15.740Z,23.67
2023-10-04T02:42:46.983Z,23.68
2023-10-04T02:45:20.516Z,23.69
2023-10-04T02:47:50.985Z,23.70
2023-10-04T02:50:21.592Z,23.71
2023-10-04T02:52:52.459Z,23.72
2023-10-04T02:55:23.562Z,23.73
2023-10-04T02:57:54.272Z,23.74
2023-10-04T03:00:25.065Z,23.75
2023-10-04T03:02:55.406Z,23.76
2023-10-04T03:05:30.057Z,23.77
2023-10-04T03:08:07.336Z,23.77
2023-10-04T03:10:38.126Z,23.78
2023-10-04T03:13:16.216Z,23.79
2023-10-04T03:15:48.390Z,23.80
2023-10-04T03:18:20.850Z,23.81
2023-10-04T03:21:09.288Z,23.81
2023-10-04T03:23:42.098Z,23.81
2023-10-04T03:26:14.295Z,23.82
2023-10-04T03:28:44.659Z,23.83
2023-10-04T03:31:16.665Z,23.84
2023-10-04T03:33:47.455Z,23.85
2023-10-04T03:36:19.304Z,23.86
2023-10-04T03:38:50.502Z,23.86
2023-10-04T03:41:20.947Z,23.87
2023-10-04T03:43:51.125Z,23.87
2023-10-04T03:46:21.288Z,23.88
2023-10-04T03:48:52.646Z,23.89
2023-10-04T03:51:25.794Z,23.89
2023-10-04T03:53:56.079Z,23.89
2023-10-04T03:56:27.372Z,23.89
2023-10-04T03:58:58.341Z,23.91
2023-10-04T04:01:28.605Z,23.91
2023-10-04T04:04:04.181Z,23.90
2023-10-04T04:06:35.278Z,23.92
2023-10-04T04:09:10.185Z,23.92
2023-10-04T04:11:40.441Z,23.92
2023-10-04T04:14:10.561Z,23.92
2023-10-04T04:16:40.716Z,23.93
2023-10-04T04:19:12.721Z,23.94
2023-10-04T04:21:43.361Z,23.94
2023-10-04T04:24:13.594Z,23.94
2023-10-04T04:26:43.756Z,23.95
2023-10-04T04:29:13.888Z,23.96
2023-10-04T04:31:44.554Z,23.96
2023-10-04T04:34:16.774Z,23.96
2023-10-04T04:36:50.401Z,23.97
2023-10-04T04:39:21.809Z,23.97
2023-10-04T04:41:53.774Z,23.97
2023-10-04T04:44:30.527Z,23.98
2023-10-04T04:47:01.403Z,23.99
2023-10-04T04:49:31.568Z,23.99
2023-10-04T04:52:03.835Z,24.00
2023-10-04T04:54:34.325Z,24.00
2023-10-04T04:57:05.927Z,24.00
2023-10-04T04:59:37.007Z,24.01
2023-10-04T05:02:09.386Z,24.01
2023-10-04T05:04:39.739Z,24.01
2023-10-04T05:07:12.298Z,24.01
2023-10-04T05:09:43.206Z,24.01
2023-10-04T05:12:13.905Z,24.01
2023-10-04T05:14:44.707Z,24.02
2023-10-04T05:17:18.292Z,24.02
2023-10-04T05:19:48.389Z,24.02
2023-10-04T05:22:18.500Z,24.02
2023-10-04T05:24:48.703Z,24.02
2023-10-04T05:27:20.097Z,24.03
2023-10-04T05:29:50.395Z,24.03
2023-10-04T05:32:20.543Z,24.04
2023-10-04T05:34:52.008Z,24.04
2023-10-04T05:37:22.146Z,24.04
2023-10-04T05:39:52.300Z,24.04
2023-10-04T05:42:22.524Z,24.04
2023-10-04T05:44:53.554Z,24.04
2023-10-04T05:47:24.131Z,24.05
2023-10-04T05:49:54.247Z,24.05
2023-10-04T05:52:24.357Z,24.04
2023-10-04T05:54:55.158Z,24.05
2023-10-04T05:57:25.601Z,24.05
2023-10-04T05:59:55.908Z,24.06
2023-10-04T06:02:26.014Z,24.06
2023-10-04T06:04:57.703Z,24.06
2023-10-04T06:07:30.180Z,24.06
2023-10-04T06:10:00.410Z,24.07
2023-10-04T06:12:30.644Z,24.07
2023-10-04T06:15:00.810Z,24.08
2023-10-04T06:17:30.981Z,24.09
2023-10-04T06:20:01.156Z,24.11
2023-10-04T06:22:31.295Z,24.10
2023-10-04T06:25:01.412Z,24.12
2023-10-04T06:27:31.586Z,24.14
2023-10-04T06:30:03.059Z,24.15
2023-10-04T06:32:38.415Z,24.16
2023-10-04T06:35:10.465Z,24.16
2023-10-04T06:37:40.926Z,24.18
2023-10-04T06:40:16.805Z,24.19
2023-10-04T06:42:47.551Z,24.20
2023-10-04T06:45:18.155Z,24.20
2023-10-04T06:47:49.082Z,24.22
2023-10-04T06:50:20.118Z,24.23
2023-10-04T06:52:50.701Z,24.24
2023-10-04T06:55:21.789Z,24.24
2023-10-04T06:57:52.003Z,24.25
2023-10-04T07:00:23.752Z,24.25
2023-10-04T07:02:56.470Z,24.26
2023-10-04T07:05:28.021Z,24.26
2023-10-04T07:07:58.764Z,24.27
2023-10-04T07:10:30.208Z,24.26
2023-10-04T07:13:01.270Z,24.26
2023-10-04T07:15:36.625Z,24.26
2023-10-04T07:18:08.796Z,24.26
2023-10-04T07:20:39.248Z,24.25
2023-10-04T07:23:11.425Z,24.26
2023-10-04T07:25:44.229Z,24.25
2023-10-04T07:28:14.593Z,24.25
2023-10-04T07:30:45.272Z,24.25
2023-10-04T07:33:15.592Z,24.25
2023-10-04T07:35:46.256Z,24.25
2023-10-04T07:38:16.395Z,24.25
2023-10-04T07:40:46.670Z,24.25
2023-10-04T07:43:16.779Z,24.26
2023-10-04T07:45:47.359Z,24.26
2023-10-04T07:48:18.302Z,24.27
2023-10-04T07:50:48.649Z,24.26
2023-10-04T07:53:22.465Z,24.26
2023-10-04T07:55:52.623Z,24.27
2023-10-04T07:58:22.791Z,24.27
2023-10-04T08:00:52.949Z,24.28
2023-10-04T08:03:23.650Z,24.28
2023-10-04T08:05:53.944Z,24.28
2023-10-04T08:08:24.184Z,24.29
2023-10-04T08:10:56.370Z,24.29
2023-10-04T08:13:27.253Z,24.29
2023-10-04T08:15:57.436Z,24.30
2023-10-04T08:18:27.930Z,24.30
2023-10-04T08:20:58.124Z,24.30
2023-10-04T08:23:29.024Z,24.31
2023-10-04T08:25:59.495Z,24.32
2023-10-04T08:28:29.742Z,24.32
2023-10-04T08:30:59.934Z,24.32
2023-10-04T08:33:34.076Z,24.33
2023-10-04T08:36:10.259Z,24.33
2023-10-04T08:38:42.799Z,24.32
2023-10-04T08:41:13.033Z,24.32
2023-10-04T08:43:43.281Z,24.33
2023-10-04T08:46:13.607Z,24.32
2023-10-04T08:48:43.949Z,24.29
2023-10-04T08:51:18.319Z,24.26
2023-10-04T08:53:57.639Z,24.23
2023-10-04T08:56:28.647Z,24.21
2023-10-04T08:58:59.300Z,24.19
2023-10-04T09:01:29.873Z,24.18
2023-10-04T09:04:00.131Z,24.18
2023-10-04T09:06:30.788Z,24.19
2023-10-04T09:09:01.087Z,24.18
2023-10-04T09:11:31.208Z,24.19
2023-10-04T09:14:01.371Z,24.18
2023-10-04T09:16:32.784Z,24.19
2023-10-04T09:19:10.260Z,24.19
2023-10-04T09:21:42.258Z,24.19
2023-10-04T09:24:14.255Z,24.19
2023-10-04T09:26:53.521Z,24.19
2023-10-04T09:29:34.061Z,24.19
2023-10-04T09:32:04.999Z,24.19
2023-10-04T09:34:35.177Z,24.19
2023-10-04T09:37:06.979Z,24.19
2023-10-04T09:39:38.287Z,24.19
2023-10-04T09:42:08.486Z,24.19
2023-10-04T09:44:38.619Z,24.18
2023-10-04T09:47:10.367Z,24.19
2023-10-04T09:49:41.884Z,24.18
2023-10-04T09:52:13.767Z,24.18
2023-10-04T09:54:44.544Z,24.18
2023-10-04T09:57:15.059Z,24.19
2023-10-04T09:59:45.505Z,24.18
2023-10-04T10:02:16.568Z,24.18
2023-10-04T10:04:47.006Z,24.18
2023-10-04T10:07:18.533Z,24.17
2023-10-04T10:10:00.389Z,24.18
2023-10-04T10:12:32.675Z,24.17
2023-10-04T10:15:03.640Z,24.17
2023-10-04T10:17:35.383Z,24.17
2023-10-04T10:20:06.603Z,24.17
2023-10-04T10:22:36.815Z,24.18
2023-10-04T10:25:16.398Z,24.17
2023-10-04T10:27:47.245Z,24.17
2023-10-04T10:30:19.841Z,24.17
2023-10-04T10:32:55.400Z,24.18
2023-10-04T10:35:59.485Z,24.18
2023-10-04T10:38:46.648Z,24.18
2023-10-04T10:42:04.877Z,24.17
2023-10-04T10:44:38.886Z,24.17
2023-10-04T10:47:15.606Z,24.17
2023-10-04T10:49:57.957Z,24.17
2023-10-04T10:52:34.990Z,24.17
2023-10-04T10:55:07.335Z,24.17
2023-10-04T10:57:39.206Z,24.17
2023-10-04T11:00:20.138Z,24.18
2023-10-04T11:02:54.443Z,24.19
2023-10-04T11:05:26.719Z,24.18
2023-10-04T11:07:57.178Z,24.20
2023-10-04T11:10:28.823Z,24.18
2023-10-04T11:13:01.081Z,24.16
2023-10-04T11:15:31.273Z,24.13
2023-10-04T11:18:01.438Z,24.09
2023-10-04T11:20:33.382Z,24.06
2023-10-04T11:23:03.611Z,24.04
2023-10-04T11:25:33.789Z,24.04
2023-10-04T11:28:04.380Z,24.03
2023-10-04T11:30:35.216Z,24.02
2023-10-04T11:33:06.891Z,23.99
2023-10-04T11:35:38.662Z,23.99
2023-10-04T11:38:16.653Z,23.98
2023-10-04T11:40:50.834Z,23.97
2023-10-04T11:43:21.060Z,23.95
2023-10-04T11:45:52.870Z,23.94
2023-10-04T11:48:23.704Z,23.93
2023-10-04T11:50:54.988Z,23.91
2023-10-04T11:53:35.553Z,23.85
2023-10-04T11:56:08.950Z,23.82
2023-10-04T11:58:48.537Z,23.81
2023-10-04T12:01:21.229Z,23.80
2023-10-04T12:03:52.217Z,23.77
2023-10-04T12:06:27.110Z,23.75
2023-10-04T12:08:57.691Z,23.74
2023-10-04T12:11:34.858Z,23.71
2023-10-04T12:14:06.164Z,23.70
2023-10-04T12:16:38.288Z,23.69
2023-10-04T12:19:08.649Z,23.68
2023-10-04T12:21:39.352Z,23.67
2023-10-04T12:24:10.983Z,23.66
2023-10-04T12:26:41.127Z,23.66
2023-10-04T12:29:12.370Z,23.67
2023-10-04T12:31:42.570Z,23.66
2023-10-04T12:34:15.598Z,23.66
2023-10-04T12:36:55.733Z,23.66
2023-10-04T12:39:27.474Z,23.66
2023-10-04T12:42:00.420Z,23.66
2023-10-04T12:44:30.557Z,23.66
2023-10-04T12:47:00.710Z,23.66
2023-10-04T12:49:31.054Z,23.66
2023-10-04T12:52:01.500Z,23.67
2023-10-04T12:54:32.459Z,23.67
2023-10-04T12:57:03.497Z,23.67
2023-10-04T12:59:34.674Z,23.67
2023-10-04T13:02:04.792Z,23.66
2023-10-04T13:04:37.024Z,23.67
2023-10-04T13:07:08.497Z,23.67
2023-10-04T13:09:52.504Z,23.67
2023-10-04T13:12:28.909Z,23.67
2023-10-04T13:14:59.020Z,23.66
2023-10-04T13:17:29.190Z,23.67
2023-10-04T13:20:00.883Z,23.68
2023-10-04T13:22:31.097Z,23.67
2023-10-04T13:25:01.290Z,23.68
2023-10-04T13:27:32.363Z,23.67
2023-10-04T13:30:02.478Z,23.66
2023-10-04T13:32:33.020Z,23.66
2023-10-04T13:35:03.413Z,23.65
2023-10-04T13:37:33.541Z,23.65
2023-10-04T13:40:10.059Z,23.64
2023-10-04T13:42:40.588Z,23.64
2023-10-04T13:45:14.579Z,23.62
2023-10-04T13:47:46.352Z,23.60
2023-10-04T13:50:20.334Z,23.57
2023-10-04T13:52:50.452Z,23.55
2023-10-04T13:55:23.048Z,23.55
2023-10-04T13:57:56.274Z,23.53
2023-10-04T14:00:26.813Z,23.54
2023-10-04T14:03:00.154Z,23.53
2023-10-04T14:05:30.603Z,23.53
2023-10-04T14:08:00.814Z,23.53
2023-10-04T14:10:31.313Z,23.54
2023-10-04T14:13:02.739Z,23.55
2023-10-04T14:15:33.680Z,23.55
2023-10-04T14:18:05.767Z,23.58
2023-10-04T14:20:36.729Z,23.59
2023-10-04T14:23:11.266Z,23.60
2023-10-04T14:25:41.911Z,23.61
2023-10-04T14:28:13.300Z,23.62
2023-10-04T14:30:43.608Z,23.63
2023-10-04T14:33:13.744Z,23.65
2023-10-04T14:35:44.652Z,23.67
2023-10-04T14:38:16.664Z,23.67
2023-10-04T14:40:58.141Z,23.68
2023-10-04T14:43:33.896Z,23.69
2023-10-04T14:46:06.096Z,23.70
2023-10-04T14:48:36.394Z,23.72
2023-10-04T14:51:13.056Z,23.73
2023-10-04T14:53:43.849Z,23.74
2023-10-04T14:56:13.993Z,23.75
2023-10-04T14:58:44.458Z,23.76
2023-10-04T15:01:18.290Z,23.76
2023-10-04T15:03:48.900Z,23.78
2023-10-04T15:06:19.359Z,23.79
2023-10-04T15:08:49.436Z,23.80
2023-10-04T15:11:30.520Z,23.81
2023-10-04T15:14:03.901Z,23.81
2023-10-04T15:16:35.343Z,23.82
2023-10-04T15:19:05.743Z,23.82
2023-10-04T15:21:38.375Z,23.83
2023-10-04T15:24:15.279Z,23.84
2023-10-04T15:26:47.468Z,23.85
2023-10-04T15:29:17.632Z,23.85
2023-10-04T15:31:48.131Z,23.85
2023-10-04T15:34:19.365Z,23.87
2023-10-04T15:36:49.473Z,23.87
2023-10-04T15:39:23.368Z,23.87
2023-10-04T15:41:54.542Z,23.88
2023-10-04T15:44:24.736Z,23.88
2023-10-04T15:46:55.077Z,23.88
2023-10-04T15:49:25.940Z,23.89
2023-10-04T15:51:56.431Z,23.89
2023-10-04T15:54:26.620Z,23.90
2023-10-04T15:56:57.045Z,23.91
2023-10-04T15:59:27.267Z,23.90
2023-10-04T16:01:58.228Z,23.91
2023-10-04T16:04:28.458Z,23.92
2023-10-04T16:06:58.612Z,23.92
2023-10-04T16:09:28.771Z,23.92
2023-10-04T16:11:58.919Z,23.93
2023-10-04T16:14:29.059Z,23.93
2023-10-04T16:17:00.106Z,23.94
2023-10-04T16:19:32.733Z,23.94
2023-10-04T16:22:03.205Z,23.94
2023-10-04T16:24:35.519Z,23.95
2023-10-04T16:27:05.993Z,23.95
2023-10-04T16:29:36.144Z,23.96
2023-10-04T16:32:06.651Z,23.97
2023-10-04T16:34:37.835Z,23.97
2023-10-04T16:37:11.971Z,23.98
2023-10-04T16:39:42.636Z,23.98
2023-10-04T16:42:13.254Z,23.99
2023-10-04T16:44:43.707Z,24.00
2023-10-04T16:47:13.814Z,24.01
2023-10-04T16:49:43.956Z,23.99
2023-10-04T16:52:14.251Z,23.96
2023-10-04T16:54:44.436Z,23.93
2023-10-04T16:57:14.973Z,23.91
2023-10-04T16:59:45.111Z,23.90
2023-10-04T17:02:15.231Z,23.89
2023-10-04T17:04:45.384Z,23.89
2023-10-04T17:07:16.566Z,23.88
2023-10-04T17:09:47.227Z,23.89
2023-10-04T17:12:17.383Z,23.90
2023-10-04T17:14:47.755Z,23.90
2023-10-04T17:17:17.891Z,23.90
2023-10-04T17:19:49.312Z,23.90
2023-10-04T17:22:20.117Z,23.90
2023-10-04T17:24:50.469Z,23.91
2023-10-04T17:27:20.708Z,23.91
2023-10-04T17:29:50.845Z,23.90
2023-10-04T17:32:21.725Z,23.90
2023-10-04T17:34:51.845Z,23.90
2023-10-04T17:37:21.987Z,23.89
2023-10-04T17:39:52.246Z,23.89
2023-10-04T17:42:23.015Z,23.87
2023-10-04T17:44:53.286Z,23.86
2023-10-04T17:47:23.797Z,23.85
2023-10-04T17:49:54.873Z,23.86
2023-10-04T17:52:27.075Z,23.85
2023-10-04T17:54:58.348Z,23.84
2023-10-04T17:57:28.646Z,23.84
2023-10-04T18:00:01.709Z,23.85
2023-10-04T18:02:32.455Z,23.86
2023-10-04T18:05:04.250Z,23.87
2023-10-04T18:07:34.361Z,23.89
2023-10-04T18:10:04.904Z,23.90
2023-10-04T18:12:36.681Z,23.92
2023-10-04T18:15:08.262Z,23.94
2023-10-04T18:17:39.028Z,23.97
2023-10-04T18:20:11.632Z,24.02
2023-10-04T18:22:42.122Z,24.06
2023-10-04T18:25:13.268Z,24.10
2023-10-04T18:27:43.434Z,24.14
2023-10-04T18:30:15.350Z,24.18
2023-10-04T18:32:45.698Z,24.23
2023-10-04T18:35:15.886Z,24.26
2023-10-04T18:37:46.042Z,24.30
2023-10-04T18:40:17.014Z,24.35
2023-10-04T18:42:48.396Z,24.38
2023-10-04T18:45:18.788Z,24.40
2023-10-04T18:47:48.977Z,24.43
2023-10-04T18:50:22.614Z,24.46
2023-10-04T18:52:53.933Z,24.47
2023-10-04T18:55:24.165Z,24.48
2023-10-04T18:57:54.701Z,24.48
2023-10-04T19:00:26.191Z,24.49
2023-10-04T19:02:56.490Z,24.49
2023-10-04T19:05:26.770Z,24.47
2023-10-04T19:07:58.933Z,24.44
2023-10-04T19:10:29.219Z,24.42
2023-10-04T19:12:59.566Z,24.39
2023-10-04T19:15:30.692Z,24.36
2023-10-04T19:18:01.008Z,24.34
2023-10-04T19:20:31.421Z,24.32
2023-10-04T19:23:01.526Z,24.30
2023-10-04T19:25:32.458Z,24.27
2023-10-04T19:28:02.875Z,24.25
2023-10-04T19:30:35.205Z,24.24
2023-10-04T19:33:05.903Z,24.21
2023-10-04T19:35:36.131Z,24.19
2023-10-04T19:38:06.858Z,24.18
2023-10-04T19:40:37.956Z,24.16
2023-10-04T19:43:08.346Z,24.14
2023-10-04T19:45:38.626Z,24.12
2023-10-04T19:48:09.290Z,24.10
2023-10-04T19:50:39.634Z,24.08
2023-10-04T19:53:10.300Z,24.06
2023-10-04T19:55:40.408Z,24.05
2023-10-04T19:58:15.088Z,24.03
2023-10-04T20:00:45.873Z,24.01
2023-10-04T20:03:18.120Z,24.00
2023-10-04T20:05:48.438Z,23.97
2023-10-04T20:08:21.489Z,23.95
2023-10-04T20:10:51.688Z,23.93
2023-10-04T20:13:21.920Z,23.91
2023-10-04T20:15:52.285Z,23.89
2023-10-04T20:18:22.440Z,23.87
2023-10-04T20:20:57.773Z,23.86
2023-10-04T20:23:29.440Z,23.84
2023-10-04T20:26:00.307Z,23.82
2023-10-04T20:28:30.417Z,23.81
2023-10-04T20:31:00.826Z,23.78
2023-10-04T20:33:31.134Z,23.78
2023-10-04T20:36:02.784Z,23.76
2023-10-04T20:38:33.016Z,23.75
2023-10-04T20:41:03.501Z,23.73
2023-10-04T20:43:33.643Z,23.72
2023-10-04T20:46:03.878Z,23.69
2023-10-04T20:48:34.158Z,23.68
2023-10-04T20:51:04.369Z,23.66
2023-10-04T20:53:34.708Z,23.64
2023-10-04T20:56:05.305Z,23.63
2023-10-04T20:58:35.405Z,23.61
2023-10-04T21:01:06.331Z,23.61
2023-10-04T21:03:37.159Z,23.59
2023-10-04T21:06:09.119Z,23.57
2023-10-04T21:08:40.329Z,23.56
2023-10-04T21:11:11.015Z,23.56
2023-10-04T21:13:42.668Z,23.55
2023-10-04T21:16:15.364Z,23.55
2023-10-04T21:18:45.647Z,23.55
2023-10-04T21:21:15.749Z,23.55
2023-10-04T21:23:46.005Z,23.55
2023-10-04T21:26:16.207Z,23.54
2023-10-04T21:28:46.361Z,23.54
2023-10-04T21:31:16.519Z,23.54
2023-10-04T21:33:54.587Z,23.54
2023-10-04T21:36:24.745Z,23.53
2023-10-04T21:39:02.287Z,23.53
2023-10-04T21:41:34.792Z,23.53
2023-10-04T21:44:10.063Z,23.52
2023-10-04T21:46:40.345Z,23.51
2023-10-04T21:49:12.030Z,23.52
2023-10-04T21:51:48.862Z,23.51
2023-10-04T21:54:19.048Z,23.51
2023-10-04T21:56:49.148Z,23.51
2023-10-04T21:59:19.457Z,23.50
2023-10-04T22:01:51.725Z,23.49
2023-10-04T22:04:22.206Z,23.49
2023-10-04T22:06:53.703Z,23.48
2023-10-04T22:09:30.262Z,23.48
2023-10-04T22:12:01.367Z,23.47
2023-10-04T22:14:32.549Z,23.45
2023-10-04T22:17:02.922Z,23.44
2023-10-04T22:19:33.399Z,23.43
2023-10-04T22:22:04.695Z,23.42
2023-10-04T22:24:46.629Z,23.42
2023-10-04T22:27:25.571Z,23.41
2023-10-04T22:29:58.278Z,23.41
2023-10-04T22:32:29.068Z,23.41
2023-10-04T22:34:59.253Z,23.41
2023-10-04T22:37:29.371Z,23.40
2023-10-04T22:39:59.600Z,23.39
2023-10-04T22:42:29.921Z,23.39
2023-10-04T22:45:00.128Z,23.40
2023-10-04T22:47:31.442Z,23.40
2023-10-04T22:50:02.543Z,23.42
2023-10-04T22:52:33.292Z,23.42
2023-10-04T22:55:05.770Z,23.43
2023-10-04T22:57:35.923Z,23.45
2023-10-04T23:00:14.865Z,23.46
2023-10-04T23:02:45.157Z,23.47
2023-10-04T23:05:18.106Z,23.48
2023-10-04T23:07:48.263Z,23.50
2023-10-04T23:10:20.347Z,23.51
2023-10-04T23:12:51.491Z,23.51
2023-10-04T23:15:29.441Z,23.52
2023-10-04T23:18:10.432Z,23.53
2023-10-04T23:20:40.762Z,23.54
2023-10-04T23:23:12.983Z,23.55
2023-10-04T23:25:45.637Z,23.55
2023-10-04T23:28:16.537Z,23.56
2023-10-04T23:30:47.768Z,23.57
2023-10-04T23:33:20.148Z,23.57
2023-10-04T23:35:57.965Z,23.58
2023-10-04T23:38:44.581Z,23.58
2023-10-04T23:41:27.789Z,23.59
2023-10-04T23:43:57.957Z,23.60
2023-10-04T23:46:30.146Z,23.60
2023-10-04T23:49:10.296Z,23.61
2023-10-04T23:51:44.653Z,23.61
2023-10-04T23:54:16.028Z,23.62
2023-10-04T23:57:14.256Z,23.62
2023-10-04T23:59:44.573Z,23.62
